Terminal Aerodrome Forecast
Issued by NWS

Current Version | Previous Version | Graphics & Text | Print | Product List | Glossary On
Versions: 1 2 3 4 5 6 7 8 9 10 11 12 13 14 15 16 17 18 19 20 21 22 23 24 25 26 27 28 29 30 31
033
FTUS41 KRNK 110520
TAFLWB
TAF
KLWB 110520Z 1106/1206 28011G16KT 5SM -SHSN SCT003 BKN015
      TEMPO 1106/1109 1SM -SHSN BKN003
     FM111100 28009KT P6SM BKN035
     FM111500 30009G15KT P6SM SCT040
     FM112200 31006KT P6SM SCT120=

USA.gov is the U.S. government's official web portal to all federal, state and local government web resources and services.